createdAt,value
2019-02-18T00:00:06.404Z,11.28
2019-02-18T00:00:49.026Z,11.38
2019-02-18T00:01:16.065Z,10.90
2019-02-18T00:01:38.965Z,10.25
2019-02-18T00:02:01.769Z,11.10
2019-02-18T00:02:26.304Z,10.80
2019-02-18T00:02:49.384Z,12.65
2019-02-18T00:03:12.158Z,12.45
2019-02-18T00:03:36.463Z,11.22
2019-02-18T00:03:59.424Z,11.05
2019-02-18T00:04:22.226Z,13.50
2019-02-18T00:04:45.245Z,10.13
2019-02-18T00:05:08.005Z,12.10
2019-02-18T00:05:32.821Z,14.15
2019-02-18T00:05:55.746Z,11.22
2019-02-18T00:06:18.590Z,11.40
2019-02-18T00:06:41.388Z,11.40
2019-02-18T00:07:13.803Z,10.55
2019-02-18T00:07:28.547Z,11.22
2019-02-18T00:07:51.405Z,7.97
2019-02-18T00:08:15.645Z,11.43
2019-02-18T00:08:38.505Z,10.00
2019-02-18T00:09:01.365Z,10.60
2019-02-18T00:09:24.298Z,11.05
2019-02-18T00:09:47.045Z,10.40
2019-02-18T00:10:10.346Z,11.50
2019-02-18T00:10:33.285Z,11.08
2019-02-18T00:10:56.165Z,10.60
2019-02-18T00:11:18.968Z,10.03
2019-02-18T00:11:41.844Z,10.53
2019-02-18T00:12:05.165Z,11.08
2019-02-18T00:12:27.967Z,10.05
2019-02-18T00:12:50.804Z,10.58
2019-02-18T00:13:14.025Z,10.98
2019-02-18T00:13:36.886Z,9.88
2019-02-18T00:13:59.729Z,9.90
2019-02-18T00:14:22.644Z,9.35
2019-02-18T00:14:45.816Z,10.43
2019-02-18T00:15:08.824Z,9.13
2019-02-18T00:15:31.744Z,8.98
2019-02-18T00:15:54.624Z,9.35
2019-02-18T00:16:17.384Z,13.13
2019-02-18T00:16:40.145Z,9.33
2019-02-18T00:17:03.085Z,8.73
2019-02-18T00:17:25.884Z,7.58
2019-02-18T00:17:48.885Z,8.70
2019-02-18T00:18:11.647Z,9.33
2019-02-18T00:18:34.665Z,10.13
2019-02-18T00:18:57.605Z,9.98
2019-02-18T00:19:20.385Z,10.40
2019-02-18T00:19:43.226Z,9.58
2019-02-18T00:20:05.985Z,10.00
2019-02-18T00:20:28.806Z,10.10
2019-02-18T00:20:51.684Z,11.20
2019-02-18T00:21:14.644Z,9.75
2019-02-18T00:21:37.545Z,9.23
2019-02-18T00:22:00.425Z,9.33
2019-02-18T00:22:23.147Z,8.28
2019-02-18T00:22:46.043Z,9.80
2019-02-18T00:23:08.905Z,9.33
2019-02-18T00:23:31.625Z,8.65
2019-02-18T00:23:54.903Z,9.48
2019-02-18T00:24:17.785Z,9.10
2019-02-18T00:24:40.685Z,8.90
2019-02-18T00:25:03.445Z,7.83
2019-02-18T00:25:26.328Z,7.92
2019-02-18T00:25:49.605Z,9.45
2019-02-18T00:26:12.904Z,11.33
2019-02-18T00:26:35.765Z,8.95
2019-02-18T00:26:58.665Z,8.78
2019-02-18T00:27:21.689Z,9.70
2019-02-18T00:27:44.505Z,9.43
2019-02-18T00:28:07.288Z,9.70
2019-02-18T00:28:30.604Z,9.30
2019-02-18T00:28:53.505Z,10.43
2019-02-18T00:29:16.405Z,9.18
2019-02-18T00:29:39.906Z,9.20
2019-02-18T00:30:02.772Z,8.10
2019-02-18T00:30:25.588Z,8.18
2019-02-18T00:30:48.544Z,7.97
2019-02-18T00:31:11.428Z,9.75
2019-02-18T00:31:34.385Z,9.33
2019-02-18T00:31:57.206Z,9.68
2019-02-18T00:32:20.064Z,7.80
2019-02-18T00:32:42.944Z,8.73
2019-02-18T00:33:05.725Z,9.35
2019-02-18T00:33:28.468Z,10.93
2019-02-18T00:33:51.264Z,11.40
2019-02-18T00:34:14.144Z,10.10
2019-02-18T00:34:36.946Z,8.83
2019-02-18T00:35:00.027Z,8.98
2019-02-18T00:35:23.124Z,9.18
2019-02-18T00:35:46.024Z,9.45
2019-02-18T00:36:09.926Z,9.88
2019-02-18T00:36:32.764Z,11.25
2019-02-18T00:36:55.565Z,10.08
2019-02-18T00:37:24.435Z,10.05
2019-02-18T00:37:43.245Z,10.70
2019-02-18T00:38:06.045Z,10.25
2019-02-18T00:38:29.345Z,9.10
2019-02-18T00:38:52.806Z,8.88
2019-02-18T00:39:15.625Z,9.10
2019-02-18T00:39:38.628Z,9.90
2019-02-18T00:40:01.485Z,8.25
2019-02-18T00:40:24.324Z,8.13
2019-02-18T00:40:48.104Z,10.60
2019-02-18T00:41:11.228Z,8.40
2019-02-18T00:41:34.144Z,10.23
2019-02-18T00:41:57.305Z,10.50
2019-02-18T00:42:20.107Z,10.95
2019-02-18T00:42:44.204Z,9.38
2019-02-18T00:43:06.987Z,7.37
2019-02-18T00:43:29.774Z,7.03
2019-02-18T00:43:52.504Z,8.80
2019-02-18T00:44:15.247Z,7.42
2019-02-18T00:44:38.144Z,7.22
2019-02-18T00:45:00.905Z,8.98
2019-02-18T00:45:23.803Z,11.05
2019-02-18T00:45:46.545Z,10.38
2019-02-18T00:46:09.384Z,8.93
2019-02-18T00:46:32.726Z,9.85
2019-02-18T00:46:55.864Z,9.88
2019-02-18T00:47:18.686Z,11.75
2019-02-18T00:47:41.587Z,10.10
2019-02-18T00:48:04.306Z,9.90
2019-02-18T00:48:27.144Z,10.72
2019-02-18T00:48:50.364Z,8.85
2019-02-18T00:49:13.505Z,9.80
2019-02-18T00:49:36.225Z,11.15
2019-02-18T00:49:59.105Z,9.45
2019-02-18T00:50:21.866Z,9.58
2019-02-18T00:50:44.644Z,9.13
2019-02-18T00:51:07.880Z,10.72
2019-02-18T00:51:30.908Z,10.80
2019-02-18T00:51:55.344Z,8.88
2019-02-18T00:52:18.146Z,9.85
2019-02-18T00:52:41.065Z,9.23
2019-02-18T00:53:04.198Z,9.58
2019-02-18T00:53:27.185Z,9.95
2019-02-18T00:53:50.084Z,8.90
2019-02-18T00:54:13.703Z,9.03
2019-02-18T00:54:36.606Z,9.28
2019-02-18T00:54:59.364Z,8.70
2019-02-18T00:55:22.348Z,8.43
2019-02-18T00:55:45.183Z,9.58
2019-02-18T00:56:07.906Z,9.80
2019-02-18T00:56:31.125Z,8.68
2019-02-18T00:56:53.905Z,9.13
2019-02-18T00:57:16.764Z,9.85
2019-02-18T00:57:39.665Z,7.90
2019-02-18T00:58:02.322Z,9.13
2019-02-18T00:58:25.073Z,9.70
2019-02-18T00:58:47.945Z,8.10
2019-02-18T00:59:10.724Z,10.13
2019-02-18T00:59:33.424Z,8.15
2019-02-18T00:59:56.271Z,8.58
2019-02-18T01:00:19.046Z,10.45
2019-02-18T01:00:42.191Z,8.65
2019-02-18T01:01:05.024Z,7.87
2019-02-18T01:01:27.865Z,7.72
2019-02-18T01:01:50.644Z,9.88
2019-02-18T01:02:13.585Z,8.35
2019-02-18T01:02:36.907Z,8.55
2019-02-18T01:02:59.784Z,8.13
2019-02-18T01:03:22.670Z,10.90
2019-02-18T01:03:45.425Z,9.75
2019-02-18T01:04:08.545Z,8.23
2019-02-18T01:04:31.424Z,9.03
2019-02-18T01:04:54.143Z,9.73
2019-02-18T01:05:16.925Z,8.38
2019-02-18T01:05:39.931Z,10.23
2019-02-18T01:06:02.538Z,7.80
2019-02-18T01:06:25.708Z,9.40
2019-02-18T01:06:49.005Z,8.55
2019-02-18T01:07:11.865Z,9.08
2019-02-18T01:07:35.315Z,9.13
2019-02-18T01:07:58.686Z,8.93
2019-02-18T01:08:21.949Z,8.15
2019-02-18T01:08:44.726Z,8.10
2019-02-18T01:09:07.605Z,11.83
2019-02-18T01:09:30.464Z,10.82
2019-02-18T01:09:53.285Z,8.80
2019-02-18T01:10:16.726Z,7.40
2019-02-18T01:10:39.485Z,9.65
2019-02-18T01:11:02.272Z,8.63
2019-02-18T01:11:26.690Z,10.88
2019-02-18T01:11:50.284Z,12.53
2019-02-18T01:12:13.185Z,9.23
2019-02-18T01:12:35.968Z,8.95
2019-02-18T01:12:59.024Z,9.48
2019-02-18T01:13:21.927Z,9.83
2019-02-18T01:13:44.797Z,8.78
2019-02-18T01:14:07.664Z,10.50
2019-02-18T01:14:30.864Z,10.05
2019-02-18T01:14:53.827Z,10.68
2019-02-18T01:15:16.805Z,8.10
2019-02-18T01:15:39.684Z,7.92
2019-02-18T01:16:02.462Z,7.87
2019-02-18T01:16:25.704Z,7.45
2019-02-18T01:16:48.685Z,9.43
2019-02-18T01:17:11.479Z,11.35
2019-02-18T01:17:34.804Z,8.63
2019-02-18T01:17:58.827Z,7.83
2019-02-18T01:18:21.904Z,10.32
2019-02-18T01:18:44.704Z,9.83
2019-02-18T01:19:08.225Z,10.93
2019-02-18T01:19:30.984Z,10.70
2019-02-18T01:19:53.705Z,10.10
2019-02-18T01:20:16.505Z,8.13
2019-02-18T01:20:39.404Z,9.23
2019-02-18T01:21:02.088Z,9.40
2019-02-18T01:21:25.126Z,8.53
2019-02-18T01:21:47.945Z,8.95
2019-02-18T01:22:10.985Z,9.98
2019-02-18T01:22:33.827Z,6.80
2019-02-18T01:22:57.150Z,7.80
2019-02-18T01:23:20.024Z,9.58
2019-02-18T01:23:42.825Z,9.93
2019-02-18T01:24:06.187Z,9.48
2019-02-18T01:24:29.186Z,7.97
2019-02-18T01:24:51.946Z,9.98
2019-02-18T01:25:14.885Z,7.87
2019-02-18T01:25:37.703Z,9.95
2019-02-18T01:26:00.469Z,10.78
2019-02-18T01:26:23.386Z,12.03
2019-02-18T01:26:46.284Z,9.50
2019-02-18T01:27:09.225Z,11.55
2019-02-18T01:27:32.065Z,9.65
2019-02-18T01:27:54.829Z,10.00
2019-02-18T01:28:17.684Z,8.63
2019-02-18T01:28:40.555Z,11.33
2019-02-18T01:29:03.186Z,10.00
2019-02-18T01:29:26.586Z,10.53
2019-02-18T01:29:49.324Z,9.28
2019-02-18T01:30:12.605Z,9.75
2019-02-18T01:30:35.305Z,10.43
2019-02-18T01:30:58.105Z,8.65
2019-02-18T01:31:20.945Z,7.75
2019-02-18T01:31:43.805Z,6.55
2019-02-18T01:32:06.609Z,9.70
2019-02-18T01:32:29.405Z,10.13
2019-02-18T01:32:52.283Z,8.78
2019-02-18T01:33:15.125Z,9.05
2019-02-18T01:33:37.984Z,10.32
2019-02-18T01:34:00.825Z,10.23
2019-02-18T01:34:23.686Z,9.05
2019-02-18T01:34:46.624Z,10.35
2019-02-18T01:35:09.445Z,9.10
2019-02-18T01:35:32.224Z,9.58
2019-02-18T01:35:55.045Z,8.08
2019-02-18T01:36:18.224Z,9.93
2019-02-18T01:36:41.045Z,8.93
2019-02-18T01:37:04.351Z,8.05
2019-02-18T01:37:27.126Z,8.93
2019-02-18T01:37:50.065Z,9.45
2019-02-18T01:38:12.928Z,9.48
2019-02-18T01:38:35.685Z,10.55
2019-02-18T01:38:58.484Z,10.13
2019-02-18T01:39:21.343Z,8.73
2019-02-18T01:39:44.145Z,9.78
2019-02-18T01:40:07.005Z,10.25
2019-02-18T01:40:29.805Z,10.50
2019-02-18T01:40:52.785Z,11.78
2019-02-18T01:41:15.665Z,8.08
2019-02-18T01:41:38.545Z,10.05
2019-02-18T01:42:01.794Z,9.38
2019-02-18T01:42:24.686Z,9.35
2019-02-18T01:42:47.465Z,6.45
2019-02-18T01:43:10.246Z,8.83
2019-02-18T01:43:33.225Z,7.85
2019-02-18T01:43:56.025Z,9.30
2019-02-18T01:44:18.804Z,10.50
2019-02-18T01:44:41.664Z,10.35
2019-02-18T01:45:04.324Z,11.12
2019-02-18T01:45:27.104Z,10.08
2019-02-18T01:45:50.004Z,8.10
2019-02-18T01:46:12.945Z,11.55
2019-02-18T01:46:35.825Z,9.55
2019-02-18T01:46:59.145Z,11.15
2019-02-18T01:47:23.048Z,8.15
2019-02-18T01:47:45.885Z,10.20
2019-02-18T01:48:08.770Z,9.50
2019-02-18T01:48:31.605Z,8.40
2019-02-18T01:48:54.505Z,9.93
2019-02-18T01:49:17.604Z,9.95
2019-02-18T01:49:40.906Z,10.05
2019-02-18T01:50:03.574Z,10.48
2019-02-18T01:50:26.325Z,9.30
2019-02-18T01:50:49.184Z,9.43
2019-02-18T01:51:12.065Z,8.68
2019-02-18T01:51:35.368Z,10.20
2019-02-18T01:51:58.084Z,9.78
2019-02-18T01:52:21.024Z,7.67
2019-02-18T01:52:43.824Z,9.85
2019-02-18T01:53:09.506Z,10.63
2019-02-18T01:53:32.305Z,9.85
2019-02-18T01:53:55.204Z,10.03
2019-02-18T01:54:18.320Z,10.60
2019-02-18T01:54:41.165Z,9.70
2019-02-18T01:55:03.964Z,10.72
2019-02-18T01:55:26.805Z,9.40
2019-02-18T01:55:49.685Z,13.55
2019-02-18T01:56:12.463Z,12.68
2019-02-18T01:56:35.486Z,10.65
2019-02-18T01:56:58.228Z,10.40
2019-02-18T01:57:21.104Z,9.95
2019-02-18T01:57:43.965Z,10.63
2019-02-18T01:58:06.848Z,11.97
2019-02-18T01:58:29.634Z,9.40
2019-02-18T01:58:53.030Z,9.95
2019-02-18T01:59:16.025Z,11.12
2019-02-18T01:59:38.885Z,10.82
2019-02-18T02:00:01.698Z,10.68
2019-02-18T02:00:24.505Z,8.25
2019-02-18T02:00:47.324Z,10.18
2019-02-18T02:01:10.186Z,9.48
2019-02-18T02:01:32.966Z,10.43
2019-02-18T02:01:56.143Z,9.55
2019-02-18T02:02:18.944Z,8.38
2019-02-18T02:02:41.764Z,11.95
2019-02-18T02:03:04.644Z,10.50
2019-02-18T02:03:27.427Z,8.50
2019-02-18T02:03:50.205Z,12.18
2019-02-18T02:04:12.944Z,10.60
2019-02-18T02:04:36.406Z,9.10
2019-02-18T02:04:59.224Z,11.00
2019-02-18T02:05:22.026Z,8.48
2019-02-18T02:05:44.965Z,9.95
2019-02-18T02:06:07.806Z,9.38
2019-02-18T02:06:31.024Z,11.30
2019-02-18T02:06:54.165Z,10.90
2019-02-18T02:07:17.184Z,10.75
2019-02-18T02:07:40.002Z,10.88
2019-02-18T02:08:02.759Z,10.13
2019-02-18T02:08:25.705Z,11.43
2019-02-18T02:08:48.704Z,9.88
2019-02-18T02:09:13.105Z,9.73
2019-02-18T02:09:35.865Z,10.55
2019-02-18T02:09:58.645Z,9.70
2019-02-18T02:10:21.544Z,8.83
2019-02-18T02:10:44.948Z,8.43
2019-02-18T02:11:07.824Z,8.88
2019-02-18T02:11:30.543Z,10.58
2019-02-18T02:11:53.386Z,9.00
2019-02-18T02:12:16.264Z,11.15
2019-02-18T02:12:39.444Z,9.15
2019-02-18T02:13:02.215Z,8.23
2019-02-18T02:13:25.024Z,10.38
2019-02-18T02:13:47.904Z,8.40
2019-02-18T02:14:10.624Z,8.30
2019-02-18T02:14:33.726Z,9.90
2019-02-18T02:14:56.604Z,11.30
2019-02-18T02:15:20.043Z,10.70
2019-02-18T02:15:43.046Z,8.23
2019-02-18T02:16:05.865Z,10.05
2019-02-18T02:16:28.665Z,9.90
2019-02-18T02:16:51.426Z,9.90
2019-02-18T02:17:14.105Z,8.30
2019-02-18T02:17:37.005Z,10.50
2019-02-18T02:17:59.764Z,10.55
2019-02-18T02:18:22.570Z,10.15
2019-02-18T02:18:45.365Z,10.08
2019-02-18T02:19:08.144Z,10.72
2019-02-18T02:19:31.366Z,11.33
2019-02-18T02:19:54.348Z,8.53
2019-02-18T02:20:17.264Z,9.75
2019-02-18T02:20:40.704Z,10.40
2019-02-18T02:21:03.445Z,9.80
2019-02-18T02:21:26.285Z,9.98
2019-02-18T02:21:49.125Z,12.25
2019-02-18T02:22:11.903Z,9.65
2019-02-18T02:22:34.947Z,9.98
2019-02-18T02:22:57.685Z,7.97
2019-02-18T02:23:20.545Z,7.62
2019-02-18T02:23:43.344Z,8.23
2019-02-18T02:24:06.185Z,12.33
2019-02-18T02:24:29.183Z,10.53
2019-02-18T02:24:52.005Z,10.13
2019-02-18T02:25:14.824Z,9.75
2019-02-18T02:25:37.704Z,9.23
2019-02-18T02:26:00.546Z,7.67
2019-02-18T02:26:23.725Z,8.40
2019-02-18T02:26:46.525Z,9.45
2019-02-18T02:27:09.986Z,12.07
2019-02-18T02:27:32.809Z,11.05
2019-02-18T02:27:55.584Z,10.88
2019-02-18T02:28:18.325Z,12.33
2019-02-18T02:28:41.024Z,12.20
2019-02-18T02:29:04.205Z,9.55
2019-02-18T02:29:27.465Z,9.50
2019-02-18T02:29:50.245Z,8.70
2019-02-18T02:30:13.087Z,9.90
2019-02-18T02:30:35.974Z,9.30
2019-02-18T02:31:01.092Z,9.73
2019-02-18T02:31:23.264Z,10.13
2019-02-18T02:31:46.208Z,12.30
2019-02-18T02:32:09.467Z,8.65
2019-02-18T02:32:32.205Z,9.10
2019-02-18T02:32:55.007Z,9.53
2019-02-18T02:33:18.385Z,9.33
2019-02-18T02:33:41.865Z,8.65
2019-02-18T02:34:04.690Z,8.95
2019-02-18T02:34:29.865Z,8.28
2019-02-18T02:34:53.271Z,9.25
2019-02-18T02:35:16.106Z,8.10
2019-02-18T02:35:38.985Z,10.48
2019-02-18T02:36:01.725Z,9.38
2019-02-18T02:36:24.687Z,10.60
2019-02-18T02:36:47.969Z,9.73
2019-02-18T02:37:10.809Z,10.18
2019-02-18T02:37:33.585Z,9.40
2019-02-18T02:38:06.990Z,9.68
2019-02-18T02:38:20.928Z,10.38
2019-02-18T02:38:43.726Z,8.60
2019-02-18T02:39:06.625Z,9.50
2019-02-18T02:39:29.739Z,9.35
2019-02-18T02:39:52.768Z,9.70
2019-02-18T02:40:15.468Z,12.55
2019-02-18T02:40:38.325Z,10.58
2019-02-18T02:41:01.591Z,8.20
2019-02-18T02:41:24.464Z,7.95
2019-02-18T02:41:47.265Z,8.15
2019-02-18T02:42:10.025Z,9.90
2019-02-18T02:42:32.826Z,11.48
2019-02-18T02:42:55.705Z,10.20
2019-02-18T02:43:18.505Z,10.48
2019-02-18T02:43:41.425Z,10.05
2019-02-18T02:44:04.264Z,10.55
2019-02-18T02:44:27.226Z,8.65
2019-02-18T02:44:50.085Z,7.50
2019-02-18T02:45:12.945Z,9.30
2019-02-18T02:45:37.348Z,10.25
2019-02-18T02:46:00.169Z,11.28
2019-02-18T02:46:22.945Z,11.83
2019-02-18T02:46:45.688Z,13.28
2019-02-18T02:47:09.843Z,10.68
2019-02-18T02:47:32.765Z,10.60
2019-02-18T02:47:55.605Z,12.95
2019-02-18T02:48:18.406Z,10.15
2019-02-18T02:48:41.203Z,8.93
2019-02-18T02:49:04.025Z,7.85
2019-02-18T02:49:26.848Z,8.60
2019-02-18T02:49:49.806Z,9.45
2019-02-18T02:50:12.607Z,10.08
2019-02-18T02:50:35.529Z,10.38
2019-02-18T02:50:58.485Z,9.13
2019-02-18T02:51:21.350Z,12.40
2019-02-18T02:51:44.106Z,9.85
2019-02-18T02:52:06.826Z,9.20
2019-02-18T02:52:29.626Z,10.75
2019-02-18T02:52:52.404Z,11.20
2019-02-18T02:53:15.269Z,11.15
2019-02-18T02:53:38.241Z,8.53
2019-02-18T02:54:01.156Z,10.32
2019-02-18T02:54:25.723Z,10.95
2019-02-18T02:54:48.509Z,8.45
2019-02-18T02:55:11.525Z,7.42
2019-02-18T02:55:34.225Z,11.10
2019-02-18T02:55:57.044Z,10.55
2019-02-18T02:56:19.871Z,12.53
2019-02-18T02:56:43.050Z,9.68
2019-02-18T02:57:06.049Z,8.30
2019-02-18T02:57:29.390Z,10.93
2019-02-18T02:57:52.143Z,9.13
2019-02-18T02:58:15.184Z,8.95
2019-02-18T02:58:38.185Z,8.28
2019-02-18T02:59:01.163Z,9.58
2019-02-18T02:59:24.044Z,9.70
2019-02-18T02:59:47.844Z,9.53
2019-02-18T03:00:10.704Z,8.83
2019-02-18T03:00:33.524Z,9.35
2019-02-18T03:00:56.423Z,9.53
2019-02-18T03:01:19.225Z,9.00
2019-02-18T03:01:41.964Z,10.38
2019-02-18T03:02:05.487Z,10.30
2019-02-18T03:02:28.263Z,10.32
2019-02-18T03:02:51.085Z,8.83
2019-02-18T03:03:13.984Z,11.40
2019-02-18T03:03:36.823Z,10.35
2019-02-18T03:03:59.644Z,10.82
2019-02-18T03:04:22.464Z,9.63
2019-02-18T03:04:45.224Z,8.85
2019-02-18T03:05:07.905Z,11.05
2019-02-18T03:05:30.785Z,11.28
2019-02-18T03:05:53.681Z,10.68
2019-02-18T03:06:16.384Z,9.45
2019-02-18T03:06:39.187Z,9.00
2019-02-18T03:07:01.949Z,10.82
2019-02-18T03:07:24.864Z,11.60
2019-02-18T03:07:47.648Z,8.75
2019-02-18T03:08:19.823Z,10.43
2019-02-18T03:08:35.086Z,8.43
2019-02-18T03:08:58.024Z,9.03
2019-02-18T03:09:20.864Z,10.82
2019-02-18T03:09:43.607Z,9.73
2019-02-18T03:10:07.324Z,8.18
2019-02-18T03:10:30.164Z,8.85
2019-02-18T03:10:52.925Z,8.78
2019-02-18T03:11:16.914Z,11.65
2019-02-18T03:11:39.746Z,10.78
2019-02-18T03:12:02.480Z,10.72
2019-02-18T03:12:25.285Z,11.80
2019-02-18T03:12:49.744Z,10.18
2019-02-18T03:13:12.547Z,9.15
2019-02-18T03:13:35.347Z,10.05
2019-02-18T03:13:58.505Z,11.22
2019-02-18T03:14:22.445Z,12.35
2019-02-18T03:14:45.271Z,10.62
2019-02-18T03:15:08.604Z,11.80
2019-02-18T03:15:31.510Z,9.63
2019-02-18T03:15:54.545Z,10.70
2019-02-18T03:16:17.807Z,10.05
2019-02-18T03:16:40.629Z,13.75
2019-02-18T03:17:03.466Z,10.00
2019-02-18T03:17:26.306Z,10.15
2019-02-18T03:17:49.187Z,7.22
2019-02-18T03:18:11.944Z,8.33
2019-02-18T03:18:36.005Z,8.70
2019-02-18T03:18:58.767Z,9.50
2019-02-18T03:19:21.624Z,8.45
2019-02-18T03:19:44.425Z,8.88
2019-02-18T03:20:07.322Z,8.73
2019-02-18T03:20:30.365Z,8.78
2019-02-18T03:20:53.224Z,12.07
2019-02-18T03:21:16.165Z,8.90
2019-02-18T03:21:39.005Z,8.35
2019-02-18T03:22:01.901Z,11.78
2019-02-18T03:22:25.166Z,11.15
2019-02-18T03:22:48.443Z,11.05
2019-02-18T03:23:11.265Z,12.47
2019-02-18T03:23:34.509Z,9.43
2019-02-18T03:23:57.346Z,11.68
2019-02-18T03:24:20.086Z,11.75
2019-02-18T03:24:42.865Z,12.75
2019-02-18T03:25:05.665Z,11.55
2019-02-18T03:25:28.873Z,15.03
2019-02-18T03:25:51.827Z,14.00
2019-02-18T03:26:14.586Z,13.18
2019-02-18T03:26:37.426Z,12.13
2019-02-18T03:27:00.231Z,13.30
2019-02-18T03:27:23.085Z,13.75
2019-02-18T03:27:45.848Z,15.18
2019-02-18T03:28:08.723Z,10.58
2019-02-18T03:28:31.571Z,11.28
2019-02-18T03:28:54.404Z,9.95
2019-02-18T03:29:17.346Z,11.18
2019-02-18T03:29:40.125Z,9.13
2019-02-18T03:30:02.852Z,9.38
2019-02-18T03:30:25.671Z,12.33
2019-02-18T03:30:48.386Z,11.73
2019-02-18T03:31:12.125Z,10.03
2019-02-18T03:31:34.992Z,8.53
2019-02-18T03:31:57.767Z,7.83
2019-02-18T03:32:20.945Z,9.83
2019-02-18T03:32:43.987Z,9.13
2019-02-18T03:33:06.665Z,12.82
2019-02-18T03:33:29.406Z,11.00
2019-02-18T03:33:52.151Z,9.70
2019-02-18T03:34:15.046Z,7.97
2019-02-18T03:34:37.825Z,9.65
2019-02-18T03:35:01.022Z,12.07
2019-02-18T03:35:24.545Z,8.75
2019-02-18T03:35:47.364Z,11.10
2019-02-18T03:36:10.228Z,10.30
2019-02-18T03:36:32.966Z,10.68
2019-02-18T03:36:55.765Z,10.88
2019-02-18T03:37:18.627Z,9.80
2019-02-18T03:37:41.447Z,9.00
2019-02-18T03:38:04.304Z,10.32
2019-02-18T03:38:31.485Z,9.33
2019-02-18T03:38:51.905Z,9.40
2019-02-18T03:39:14.806Z,11.05
2019-02-18T03:39:37.525Z,11.03
2019-02-18T03:40:00.748Z,10.50
2019-02-18T03:40:23.704Z,10.18
2019-02-18T03:40:46.507Z,11.35
2019-02-18T03:41:09.391Z,17.05
2019-02-18T03:41:32.685Z,22.37
2019-02-18T03:41:55.466Z,37.67
2019-02-18T03:42:18.325Z,55.88
2019-02-18T03:42:41.185Z,38.90
2019-02-18T03:43:03.928Z,26.95
2019-02-18T03:43:26.705Z,32.60
2019-02-18T03:43:49.564Z,27.52
2019-02-18T03:44:12.405Z,14.98
2019-02-18T03:44:35.392Z,20.75
2019-02-18T03:44:58.590Z,22.27
2019-02-18T03:45:21.346Z,24.15
2019-02-18T03:45:44.144Z,26.23
2019-02-18T03:46:07.643Z,28.70
2019-02-18T03:46:30.474Z,30.37
2019-02-18T03:46:53.326Z,25.92
2019-02-18T03:47:16.571Z,20.85
2019-02-18T03:47:39.345Z,19.37
2019-02-18T03:48:02.500Z,18.50
2019-02-18T03:48:25.264Z,19.37
2019-02-18T03:48:48.424Z,21.07
2019-02-18T03:49:11.230Z,22.67
2019-02-18T03:49:34.365Z,24.25
2019-02-18T03:49:57.146Z,23.98
2019-02-18T03:50:19.988Z,23.45
2019-02-18T03:50:42.847Z,24.43
2019-02-18T03:51:05.625Z,23.70
2019-02-18T03:51:28.363Z,20.68
2019-02-18T03:51:51.265Z,18.90
2019-02-18T03:52:14.025Z,16.57
2019-02-18T03:52:36.905Z,12.82
2019-02-18T03:52:59.725Z,11.57
2019-02-18T03:53:22.505Z,14.80
2019-02-18T03:53:45.357Z,10.98
2019-02-18T03:54:08.565Z,9.23
2019-02-18T03:54:31.533Z,8.58
2019-02-18T03:54:54.245Z,10.60
2019-02-18T03:55:17.221Z,9.85
2019-02-18T03:55:39.946Z,11.25
2019-02-18T03:56:02.633Z,12.25
2019-02-18T03:56:25.426Z,14.23
2019-02-18T03:56:48.175Z,11.15
2019-02-18T03:57:10.963Z,10.45
2019-02-18T03:57:33.746Z,10.88
2019-02-18T03:57:56.709Z,9.45
2019-02-18T03:58:19.910Z,10.38
2019-02-18T03:58:42.744Z,11.70
2019-02-18T03:59:05.874Z,10.85
2019-02-18T03:59:29.126Z,10.75
2019-02-18T03:59:51.851Z,11.08
2019-02-18T04:00:14.624Z,11.65
2019-02-18T04:00:37.746Z,9.23
2019-02-18T04:01:01.546Z,10.08
2019-02-18T04:01:24.345Z,13.35
2019-02-18T04:01:47.648Z,14.58
2019-02-18T04:02:10.484Z,8.93
2019-02-18T04:02:33.304Z,11.22
2019-02-18T04:02:56.064Z,13.48
2019-02-18T04:03:18.866Z,10.60
2019-02-18T04:03:41.686Z,10.58
2019-02-18T04:04:06.707Z,12.65
2019-02-18T04:04:33.064Z,11.93
2019-02-18T04:04:56.427Z,8.08
2019-02-18T04:05:19.466Z,9.03
2019-02-18T04:05:42.186Z,9.30
2019-02-18T04:06:05.006Z,11.35
2019-02-18T04:06:27.845Z,12.35
2019-02-18T04:06:50.544Z,11.22
2019-02-18T04:07:13.347Z,8.80
2019-02-18T04:07:36.549Z,9.55
2019-02-18T04:07:59.504Z,10.35
2019-02-18T04:08:22.583Z,10.28
2019-02-18T04:08:45.445Z,10.78
2019-02-18T04:09:08.268Z,10.60
2019-02-18T04:09:31.645Z,9.70
2019-02-18T04:09:54.684Z,10.43
2019-02-18T04:10:17.445Z,9.43
2019-02-18T04:10:42.125Z,10.65
2019-02-18T04:11:04.726Z,10.95
2019-02-18T04:11:27.604Z,11.08
2019-02-18T04:11:50.485Z,9.93
2019-02-18T04:12:13.306Z,8.03
2019-02-18T04:12:36.084Z,10.63
2019-02-18T04:12:59.006Z,9.68
2019-02-18T04:13:21.764Z,11.10
2019-02-18T04:13:44.729Z,10.45
2019-02-18T04:14:07.466Z,11.05
2019-02-18T04:14:30.509Z,12.55
2019-02-18T04:14:53.425Z,10.15
2019-02-18T04:15:16.265Z,9.90
2019-02-18T04:15:39.105Z,9.05
2019-02-18T04:16:01.894Z,10.93
2019-02-18T04:16:24.724Z,9.28
2019-02-18T04:16:47.525Z,10.35
2019-02-18T04:17:10.505Z,10.10
2019-02-18T04:17:33.285Z,11.93
2019-02-18T04:17:56.084Z,11.38
2019-02-18T04:18:18.945Z,6.83
2019-02-18T04:18:41.765Z,8.13
2019-02-18T04:19:04.705Z,10.48
2019-02-18T04:19:27.505Z,8.95
2019-02-18T04:19:50.284Z,10.10
2019-02-18T04:20:13.226Z,10.10
2019-02-18T04:20:36.244Z,10.93
2019-02-18T04:20:59.109Z,7.92
2019-02-18T04:21:21.905Z,8.05
2019-02-18T04:21:44.685Z,8.88
2019-02-18T04:22:07.604Z,9.65
2019-02-18T04:22:30.369Z,8.85
2019-02-18T04:22:55.605Z,11.12
2019-02-18T04:23:18.603Z,7.50
2019-02-18T04:23:41.548Z,8.60
2019-02-18T04:24:04.284Z,6.95
2019-02-18T04:24:27.090Z,8.90
2019-02-18T04:24:49.943Z,9.45
2019-02-18T04:25:13.365Z,9.70
2019-02-18T04:25:36.165Z,8.05
2019-02-18T04:25:59.025Z,8.03
2019-02-18T04:26:21.867Z,10.23
2019-02-18T04:26:44.605Z,11.45
2019-02-18T04:27:07.505Z,11.18
2019-02-18T04:27:30.785Z,10.15
2019-02-18T04:27:53.594Z,8.43
2019-02-18T04:28:16.426Z,6.65
2019-02-18T04:28:39.526Z,8.02
2019-02-18T04:29:02.286Z,7.40
2019-02-18T04:29:25.065Z,9.54
2019-02-18T04:29:48.787Z,10.95
2019-02-18T04:30:13.596Z,10.82
2019-02-18T04:30:36.245Z,9.18
2019-02-18T04:30:58.983Z,8.95
2019-02-18T04:31:21.805Z,8.83
2019-02-18T04:31:44.705Z,9.75
2019-02-18T04:32:07.806Z,8.70
2019-02-18T04:32:30.703Z,8.15
2019-02-18T04:32:53.545Z,9.43
2019-02-18T04:33:16.366Z,9.63
2019-02-18T04:33:40.984Z,8.50
2019-02-18T04:34:03.687Z,5.03
2019-02-18T04:34:26.488Z,7.25
2019-02-18T04:34:49.466Z,7.97
2019-02-18T04:35:12.333Z,18.02
2019-02-18T04:35:36.366Z,26.45
2019-02-18T04:35:59.146Z,29.72
2019-02-18T04:36:22.024Z,22.70
2019-02-18T04:36:44.730Z,14.28
2019-02-18T04:37:07.625Z,13.10
2019-02-18T04:37:30.486Z,12.20
2019-02-18T04:37:53.288Z,11.28
2019-02-18T04:38:16.206Z,9.43
2019-02-18T04:38:39.104Z,9.43
2019-02-18T04:39:01.837Z,9.24
2019-02-18T04:39:25.116Z,10.82
2019-02-18T04:39:48.285Z,10.70
2019-02-18T04:40:11.007Z,8.60
2019-02-18T04:40:34.025Z,9.45
2019-02-18T04:40:58.589Z,11.03
2019-02-18T04:41:21.386Z,12.28
2019-02-18T04:41:44.204Z,8.70
2019-02-18T04:42:07.664Z,10.75
2019-02-18T04:42:30.506Z,9.68
2019-02-18T04:42:53.225Z,7.67
2019-02-18T04:43:16.524Z,10.45
2019-02-18T04:43:42.005Z,9.80
2019-02-18T04:44:03.985Z,9.10
2019-02-18T04:44:27.105Z,8.20
2019-02-18T04:44:50.748Z,7.22
2019-02-18T04:45:13.585Z,7.50
2019-02-18T04:45:36.389Z,7.72
2019-02-18T04:45:59.245Z,8.40
2019-02-18T04:46:22.546Z,11.25
2019-02-18T04:46:45.806Z,8.55
2019-02-18T04:47:08.650Z,7.25
2019-02-18T04:47:31.586Z,11.25
2019-02-18T04:47:54.385Z,10.55
2019-02-18T04:48:17.184Z,10.53
2019-02-18T04:48:40.505Z,8.53
2019-02-18T04:49:03.206Z,8.98
2019-02-18T04:49:25.985Z,9.08
2019-02-18T04:49:48.926Z,9.20
2019-02-18T04:50:11.847Z,8.40
2019-02-18T04:50:34.594Z,9.23
2019-02-18T04:50:57.586Z,9.08
2019-02-18T04:51:20.825Z,9.03
2019-02-18T04:51:44.646Z,9.23
2019-02-18T04:52:07.745Z,9.63
2019-02-18T04:52:34.487Z,9.10
2019-02-18T04:52:57.708Z,10.08
2019-02-18T04:53:25.824Z,9.40
2019-02-18T04:53:48.984Z,8.43
2019-02-18T04:54:11.906Z,7.03
2019-02-18T04:54:34.745Z,8.13
2019-02-18T04:54:57.568Z,8.70
2019-02-18T04:55:20.486Z,8.08
2019-02-18T04:55:43.285Z,8.30
2019-02-18T04:56:06.105Z,9.35
2019-02-18T04:56:28.946Z,7.55
2019-02-18T04:56:51.753Z,7.47
2019-02-18T04:57:14.665Z,8.70
2019-02-18T04:57:37.425Z,6.78
2019-02-18T04:58:00.209Z,9.08
2019-02-18T04:58:23.146Z,12.45
2019-02-18T04:58:45.983Z,11.70
2019-02-18T04:59:09.223Z,9.90
2019-02-18T04:59:32.065Z,10.58
2019-02-18T04:59:55.313Z,11.22
2019-02-18T05:00:18.024Z,8.28
2019-02-18T05:00:41.025Z,7.87
2019-02-18T05:01:03.944Z,7.95
2019-02-18T05:01:26.724Z,8.15
2019-02-18T05:01:50.284Z,8.50